createdAt,value
2019-05-30T04:23:46.440Z,22.50
2019-05-30T04:24:46.402Z,22.50
2019-05-30T04:25:46.356Z,22.50
2019-05-30T04:26:46.346Z,28.13
2019-05-30T04:27:46.370Z,28.13
2019-05-30T04:28:46.403Z,28.13
2019-05-30T04:29:46.335Z,33.75
2019-05-30T04:30:46.348Z,33.75
2019-05-30T04:31:46.358Z,45.00
2019-05-30T04:32:46.287Z,45.00
2019-05-30T04:33:46.306Z,50.63
2019-05-30T04:34:46.308Z,50.63
2019-05-30T04:35:46.319Z,50.63
2019-05-30T04:36:46.292Z,45.00
2019-05-30T04:37:46.300Z,50.63
2019-05-30T04:38:46.253Z,78.75
2019-05-30T04:39:46.306Z,112.50
2019-05-30T04:40:46.271Z,123.75
2019-05-30T04:41:46.290Z,129.38
2019-05-30T04:42:46.249Z,123.75
2019-05-30T04:43:46.299Z,112.50
2019-05-30T04:44:46.306Z,112.50
2019-05-30T04:45:46.270Z,106.88
2019-05-30T04:46:46.279Z,101.25
2019-05-30T04:47:46.271Z,95.63
2019-05-30T04:48:46.244Z,90.00
2019-05-30T04:49:46.275Z,84.38
2019-05-30T04:50:46.253Z,106.88
2019-05-30T04:51:46.271Z,112.50
2019-05-30T04:52:46.277Z,118.13
2019-05-30T04:53:46.277Z,140.63
2019-05-30T04:54:46.268Z,151.88
2019-05-30T04:55:46.272Z,146.25
2019-05-30T04:56:46.265Z,157.50
2019-05-30T04:57:46.298Z,180.00
2019-05-30T04:58:46.276Z,185.63
2019-05-30T04:59:46.292Z,196.88
2019-05-30T05:00:46.279Z,208.13
2019-05-30T05:01:46.316Z,213.75
2019-05-30T05:02:46.316Z,213.75
2019-05-30T05:03:47.033Z,208.13
2019-05-30T05:04:46.297Z,208.13
2019-05-30T05:05:46.325Z,213.75
2019-05-30T05:06:46.336Z,219.38
2019-05-30T05:07:46.358Z,219.38
2019-05-30T05:08:46.377Z,213.75
2019-05-30T05:09:46.388Z,219.38
2019-05-30T05:10:46.395Z,219.38
2019-05-30T05:11:46.367Z,225.00
2019-05-30T05:12:46.387Z,230.63
2019-05-30T05:13:46.371Z,236.25
2019-05-30T05:14:46.390Z,219.38
2019-05-30T05:15:46.407Z,225.00
2019-05-30T05:16:46.415Z,241.88
2019-05-30T05:17:46.450Z,258.75
2019-05-30T05:18:46.423Z,270.00
2019-05-30T05:19:46.493Z,286.88
2019-05-30T05:20:46.448Z,303.75
2019-05-30T05:21:46.446Z,320.63
2019-05-30T05:22:46.537Z,337.50
2019-05-30T05:23:46.486Z,348.75
2019-05-30T05:24:46.527Z,376.88
2019-05-30T05:25:59.857Z,388.13
2019-05-30T05:26:46.508Z,416.25
2019-05-30T05:27:46.521Z,438.75
2019-05-30T05:28:46.576Z,472.50
2019-05-30T05:29:46.536Z,500.63
2019-05-30T05:30:55.318Z,517.50
2019-05-30T05:32:40.255Z,585.00
2019-05-30T05:33:53.711Z,646.88
2019-05-30T05:34:40.279Z,720.00
2019-05-30T05:35:40.334Z,675.00
2019-05-30T05:36:40.296Z,703.13
2019-05-30T05:37:40.312Z,736.88
2019-05-30T05:38:40.312Z,781.88
2019-05-30T05:39:49.073Z,883.13
2019-05-30T05:41:44.894Z,939.38
2019-05-30T05:42:44.896Z,1040.63
2019-05-30T05:43:44.884Z,1231.88
2019-05-30T05:44:44.932Z,1316.25
2019-05-30T05:45:44.938Z,1271.25
2019-05-30T05:46:44.968Z,1260.00
2019-05-30T05:47:45.024Z,1383.75
2019-05-30T05:48:45.002Z,1378.13
2019-05-30T05:49:45.083Z,1276.88
2019-05-30T05:50:45.039Z,1226.25
2019-05-30T05:51:45.029Z,1316.25
2019-05-30T05:52:45.035Z,1434.38
2019-05-30T05:53:45.103Z,1355.63
2019-05-30T05:54:45.143Z,1147.50
2019-05-30T05:55:45.121Z,1096.88
2019-05-30T05:56:53.809Z,1248.75
2019-05-30T05:58:50.654Z,1501.88
2019-05-30T06:00:00.164Z,1383.75
2019-05-30T06:01:55.785Z,1895.63
2019-05-30T06:02:55.586Z,2306.25
2019-05-30T06:04:13.167Z,2385.00
2019-05-30T06:06:00.117Z,1968.75
2019-05-30T06:07:00.075Z,1490.63
2019-05-30T06:08:00.087Z,1310.63
2019-05-30T06:09:00.296Z,1434.38
2019-05-30T06:10:00.153Z,1406.25
2019-05-30T06:11:00.211Z,1569.38
2019-05-30T06:12:00.209Z,1721.25
2019-05-30T06:13:00.183Z,1288.13
2019-05-30T06:14:00.198Z,450.00
2019-05-30T06:15:00.265Z,129.38
2019-05-30T06:16:00.237Z,106.88
2019-05-30T06:17:00.268Z,90.00
2019-05-30T06:18:00.278Z,90.00
2019-05-30T06:19:00.288Z,84.38
2019-05-30T06:20:00.312Z,84.38
2019-05-30T06:21:00.280Z,78.75
2019-05-30T06:22:00.352Z,78.75
2019-05-30T06:23:00.316Z,73.13
2019-05-30T06:24:00.337Z,73.13
2019-05-30T06:25:00.352Z,73.13
2019-05-30T06:26:00.384Z,67.50
2019-05-30T06:27:09.567Z,67.50
2019-05-30T06:29:06.883Z,67.50
2019-05-30T06:31:46.893Z,67.50
2019-05-30T06:32:46.928Z,67.50
2019-05-30T06:33:46.912Z,67.50
2019-05-30T06:34:46.882Z,67.50
2019-05-30T06:35:46.861Z,67.50
2019-05-30T06:36:46.873Z,61.88
2019-05-30T06:37:46.880Z,61.88
2019-05-30T06:38:46.858Z,61.88
2019-05-30T06:39:46.873Z,61.88
2019-05-30T06:40:46.875Z,61.88
2019-05-30T06:41:46.893Z,61.88
2019-05-30T06:42:46.894Z,61.88
2019-05-30T06:43:46.898Z,61.88
2019-05-30T06:44:46.891Z,56.25
2019-05-30T06:45:46.903Z,56.25
2019-05-30T06:46:46.957Z,56.25
2019-05-30T06:47:46.966Z,56.25
2019-05-30T06:48:46.923Z,56.25
2019-05-30T06:49:46.936Z,56.25
2019-05-30T06:50:46.929Z,56.25
2019-05-30T06:51:47.074Z,56.25
2019-05-30T06:52:46.950Z,56.25
2019-05-30T06:53:46.938Z,56.25
2019-05-30T06:54:46.947Z,56.25
2019-05-30T06:55:46.965Z,56.25
2019-05-30T06:56:46.984Z,56.25
2019-05-30T06:57:46.960Z,56.25
2019-05-30T06:58:49.003Z,56.25
2019-05-30T06:59:46.961Z,56.25
2019-05-30T07:00:46.980Z,50.63
2019-05-30T07:01:46.973Z,50.63
2019-05-30T07:02:46.996Z,50.63
2019-05-30T07:03:47.125Z,50.63
2019-05-30T07:04:52.063Z,50.63
2019-05-30T07:05:47.489Z,50.63
2019-05-30T07:06:47.411Z,50.63
2019-05-30T07:07:47.208Z,50.63
2019-05-30T07:08:46.991Z,50.63
2019-05-30T07:09:47.038Z,50.63
2019-05-30T07:10:47.063Z,50.63
2019-05-30T07:11:47.060Z,50.63
2019-05-30T07:12:47.109Z,50.63
2019-05-30T07:13:47.088Z,50.63
2019-05-30T07:14:47.043Z,50.63
2019-05-30T07:15:47.033Z,50.63
2019-05-30T07:16:47.113Z,50.63
2019-05-30T07:17:47.099Z,50.63
2019-05-30T07:18:47.144Z,50.63
2019-05-30T07:19:47.021Z,50.63
2019-05-30T07:20:47.055Z,50.63
2019-05-30T07:21:47.027Z,50.63
2019-05-30T07:22:47.028Z,50.63
2019-05-30T07:23:47.787Z,50.63
2019-05-30T07:24:47.097Z,50.63
2019-05-30T07:25:47.121Z,50.63
2019-05-30T07:26:47.077Z,50.63
2019-05-30T07:27:47.158Z,50.63
2019-05-30T07:28:47.035Z,50.63
2019-05-30T07:29:47.866Z,50.63
2019-05-30T07:30:47.064Z,50.63
2019-05-30T07:31:47.074Z,50.63
2019-05-30T07:32:47.398Z,50.63
2019-05-30T07:33:47.105Z,45.00
2019-05-30T07:34:47.074Z,45.00
2019-05-30T07:35:47.134Z,45.00
2019-05-30T07:36:47.079Z,45.00
2019-05-30T07:37:47.136Z,45.00
2019-05-30T07:38:47.091Z,45.00
2019-05-30T07:39:47.590Z,45.00
2019-05-30T07:40:47.159Z,45.00
2019-05-30T07:42:04.917Z,45.00
2019-05-30T07:42:47.072Z,45.00
2019-05-30T07:43:47.147Z,45.00
2019-05-30T07:44:47.101Z,45.00
2019-05-30T07:45:57.634Z,45.00
2019-05-30T07:46:47.271Z,45.00
2019-05-30T07:47:47.069Z,45.00
2019-05-30T07:48:47.129Z,45.00
2019-05-30T07:49:47.429Z,45.00
2019-05-30T07:50:47.077Z,45.00
2019-05-30T07:51:47.085Z,45.00
2019-05-30T07:52:47.098Z,39.38
2019-05-30T07:53:47.119Z,39.38
2019-05-30T07:54:47.080Z,39.38
2019-05-30T07:55:47.158Z,39.38
2019-05-30T07:56:47.125Z,39.38
2019-05-30T07:57:47.499Z,39.38
2019-05-30T07:58:47.129Z,39.38
2019-05-30T07:59:47.142Z,39.38
2019-05-30T08:00:47.115Z,39.38
2019-05-30T08:01:47.101Z,39.38
2019-05-30T08:02:47.108Z,39.38
2019-05-30T08:03:47.103Z,39.38
2019-05-30T08:04:47.193Z,39.38
2019-05-30T08:05:47.133Z,39.38
2019-05-30T08:06:47.152Z,39.38
2019-05-30T08:07:47.885Z,39.38
2019-05-30T08:08:56.000Z,39.38
2019-05-30T08:11:08.065Z,39.38
2019-05-30T08:11:52.654Z,39.38
2019-05-30T08:12:52.644Z,39.38
2019-05-30T08:13:52.660Z,39.38
2019-05-30T08:14:52.646Z,39.38
2019-05-30T08:15:52.679Z,39.38
2019-05-30T08:16:52.639Z,39.38
2019-05-30T08:17:53.070Z,39.38
2019-05-30T08:18:52.621Z,33.75
2019-05-30T08:19:52.658Z,33.75
2019-05-30T08:20:52.704Z,33.75
2019-05-30T08:21:52.632Z,33.75
2019-05-30T08:22:52.638Z,33.75
2019-05-30T08:23:52.803Z,33.75
2019-05-30T08:24:52.629Z,33.75
2019-05-30T08:25:52.645Z,33.75
2019-05-30T08:28:42.686Z,33.75
2019-05-30T08:29:40.798Z,33.75
2019-05-30T08:31:36.871Z,33.75
2019-05-30T08:32:36.931Z,33.75
2019-05-30T08:33:37.567Z,33.75
2019-05-30T08:34:36.695Z,33.75
2019-05-30T08:35:46.703Z,33.75
2019-05-30T08:36:37.112Z,33.75
2019-05-30T08:37:37.320Z,33.75
2019-05-30T08:38:37.414Z,33.75
2019-05-30T08:39:37.390Z,33.75
2019-05-30T08:40:37.700Z,33.75
2019-05-30T08:41:37.381Z,33.75
2019-05-30T08:42:38.200Z,33.75
2019-05-30T08:43:37.505Z,33.75
2019-05-30T08:44:36.388Z,39.38
2019-05-30T08:45:36.398Z,39.38
2019-05-30T08:46:36.382Z,33.75
2019-05-30T08:47:36.404Z,33.75
2019-05-30T08:48:36.407Z,33.75
2019-05-30T08:49:36.425Z,33.75
2019-05-30T08:50:38.652Z,33.75
2019-05-30T08:51:36.414Z,33.75
2019-05-30T08:52:36.571Z,33.75
2019-05-30T08:53:36.534Z,33.75
2019-05-30T08:54:36.503Z,33.75
2019-05-30T08:55:36.519Z,33.75
2019-05-30T08:56:36.572Z,33.75
2019-05-30T08:57:36.696Z,33.75
2019-05-30T08:58:36.806Z,33.75
2019-05-30T08:59:36.724Z,33.75
2019-05-30T09:00:36.977Z,33.75
2019-05-30T09:01:37.446Z,33.75
2019-05-30T09:02:36.669Z,33.75
2019-05-30T09:03:36.411Z,28.13
2019-05-30T09:04:37.809Z,33.75
2019-05-30T09:05:36.707Z,33.75
2019-05-30T09:06:36.420Z,28.13
2019-05-30T09:07:36.574Z,28.13
2019-05-30T09:08:36.423Z,28.13
2019-05-30T09:09:36.431Z,28.13
2019-05-30T09:10:37.787Z,28.13
2019-05-30T09:11:37.699Z,28.13
2019-05-30T09:12:37.897Z,28.13
2019-05-30T09:13:37.716Z,28.13
2019-05-30T09:14:37.877Z,28.13
2019-05-30T09:15:37.451Z,28.13
2019-05-30T09:16:36.428Z,28.13
2019-05-30T09:17:38.711Z,28.13
2019-05-30T09:18:37.985Z,28.13
2019-05-30T09:19:37.953Z,28.13
2019-05-30T09:20:37.883Z,28.13
2019-05-30T09:21:36.816Z,28.13
2019-05-30T09:22:37.922Z,28.13
2019-05-30T09:23:38.282Z,28.13
2019-05-30T09:24:38.461Z,28.13
2019-05-30T09:25:37.203Z,28.13
2019-05-30T09:26:38.515Z,28.13
2019-05-30T09:27:38.890Z,28.13
2019-05-30T09:28:36.446Z,28.13
2019-05-30T09:29:36.484Z,28.13
2019-05-30T09:30:36.518Z,28.13
2019-05-30T09:31:36.479Z,28.13
2019-05-30T09:32:36.462Z,22.50
2019-05-30T09:33:36.496Z,22.50
2019-05-30T09:34:36.483Z,28.13
2019-05-30T09:35:36.482Z,28.13
2019-05-30T09:36:36.516Z,28.13
2019-05-30T09:37:36.498Z,28.13
2019-05-30T09:38:36.462Z,28.13
2019-05-30T09:39:36.491Z,28.13
2019-05-30T09:40:36.473Z,28.13
2019-05-30T09:41:36.495Z,28.13
2019-05-30T09:42:36.517Z,28.13
2019-05-30T09:43:36.498Z,28.13
2019-05-30T09:44:36.493Z,28.13
2019-05-30T09:45:36.495Z,28.13
2019-05-30T09:46:36.528Z,28.13
2019-05-30T09:47:36.511Z,22.50
2019-05-30T09:48:36.494Z,22.50
2019-05-30T09:49:36.500Z,28.13
2019-05-30T09:50:36.485Z,22.50
2019-05-30T09:51:36.486Z,28.13
2019-05-30T09:52:36.507Z,28.13
2019-05-30T09:53:36.487Z,28.13
2019-05-30T09:54:37.048Z,22.50
2019-05-30T09:55:36.562Z,22.50
2019-05-30T09:56:36.600Z,22.50
2019-05-30T09:57:36.490Z,22.50
2019-05-30T09:58:36.591Z,22.50
2019-05-30T09:59:36.520Z,22.50
2019-05-30T10:00:36.894Z,22.50
2019-05-30T10:01:36.529Z,22.50
2019-05-30T10:02:36.528Z,22.50
2019-05-30T10:03:36.533Z,22.50
2019-05-30T10:04:36.532Z,22.50
2019-05-30T10:05:36.515Z,22.50
2019-05-30T10:06:36.520Z,22.50
2019-05-30T10:07:36.548Z,22.50
2019-05-30T10:08:36.546Z,22.50
2019-05-30T10:09:36.521Z,22.50
2019-05-30T10:10:36.533Z,22.50
2019-05-30T10:11:36.528Z,22.50
2019-05-30T10:12:36.562Z,22.50
2019-05-30T10:13:36.525Z,22.50
2019-05-30T10:14:36.560Z,22.50
2019-05-30T10:15:36.622Z,22.50
2019-05-30T10:16:36.534Z,22.50
2019-05-30T10:17:36.544Z,22.50
2019-05-30T10:18:36.608Z,22.50
2019-05-30T10:19:36.572Z,22.50
2019-05-30T10:20:36.643Z,22.50
2019-05-30T10:21:36.563Z,22.50
2019-05-30T10:22:36.564Z,22.50
2019-05-30T10:23:36.575Z,22.50
2019-05-30T10:24:36.596Z,22.50
2019-05-30T10:25:36.587Z,22.50
2019-05-30T10:26:36.606Z,22.50
2019-05-30T10:27:36.597Z,22.50
2019-05-30T10:28:36.613Z,22.50
2019-05-30T10:29:36.608Z,22.50
2019-05-30T10:30:36.624Z,22.50
2019-05-30T10:31:36.587Z,22.50
2019-05-30T10:32:36.695Z,22.50
2019-05-30T10:33:36.602Z,22.50
2019-05-30T10:34:36.605Z,22.50
2019-05-30T10:35:36.725Z,22.50
2019-05-30T10:36:44.238Z,22.50
2019-05-30T10:37:36.560Z,22.50
2019-05-30T10:38:36.588Z,22.50
2019-05-30T10:39:47.314Z,22.50
2019-05-30T10:41:41.270Z,22.50
2019-05-30T10:42:41.100Z,22.50
2019-05-30T10:43:41.121Z,22.50
2019-05-30T10:44:41.166Z,22.50
2019-05-30T10:45:41.157Z,22.50
2019-05-30T10:46:41.155Z,22.50
2019-05-30T10:47:41.188Z,22.50
2019-05-30T10:48:41.253Z,22.50
2019-05-30T10:49:41.183Z,22.50
2019-05-30T10:50:41.156Z,22.50
2019-05-30T10:51:41.119Z,22.50
2019-05-30T10:52:41.171Z,22.50
2019-05-30T10:53:41.291Z,22.50
2019-05-30T10:54:41.195Z,22.50
2019-05-30T10:55:41.189Z,22.50
2019-05-30T10:56:41.193Z,22.50
2019-05-30T10:57:41.150Z,16.88
2019-05-30T10:58:41.146Z,22.50
2019-05-30T10:59:41.214Z,22.50
2019-05-30T11:00:41.150Z,16.88
2019-05-30T11:01:41.179Z,16.88
2019-05-30T11:02:41.152Z,16.88
2019-05-30T11:03:41.135Z,16.88
2019-05-30T11:04:41.193Z,16.88
2019-05-30T11:05:41.229Z,16.88
2019-05-30T11:06:41.176Z,16.88
2019-05-30T11:07:53.165Z,16.88
2019-05-30T11:08:41.194Z,16.88
2019-05-30T11:09:41.227Z,16.88
2019-05-30T11:10:41.185Z,16.88
2019-05-30T11:11:41.154Z,16.88
2019-05-30T11:12:41.192Z,16.88
2019-05-30T11:13:41.172Z,16.88
2019-05-30T11:14:41.314Z,16.88
2019-05-30T11:15:41.216Z,16.88
2019-05-30T11:16:41.241Z,16.88
2019-05-30T11:17:41.213Z,16.88
2019-05-30T11:18:41.219Z,16.88
2019-05-30T11:19:41.203Z,16.88
2019-05-30T11:20:41.231Z,16.88
2019-05-30T11:21:41.257Z,16.88
2019-05-30T11:22:41.216Z,16.88
2019-05-30T11:23:41.185Z,16.88
2019-05-30T11:24:41.190Z,16.88
2019-05-30T11:25:41.207Z,16.88
2019-05-30T11:26:41.228Z,16.88
2019-05-30T11:27:41.228Z,16.88
2019-05-30T11:28:41.269Z,16.88
2019-05-30T11:29:41.289Z,16.88
2019-05-30T11:30:41.318Z,16.88
2019-05-30T11:31:41.255Z,16.88
2019-05-30T11:32:41.264Z,16.88
2019-05-30T11:33:41.269Z,16.88
2019-05-30T11:34:41.265Z,16.88
2019-05-30T11:35:41.212Z,16.88
2019-05-30T11:36:41.253Z,16.88
2019-05-30T11:37:41.287Z,16.88
2019-05-30T11:38:41.285Z,16.88
2019-05-30T11:39:41.236Z,16.88
2019-05-30T11:40:41.220Z,16.88
2019-05-30T11:41:41.288Z,16.88
2019-05-30T11:42:41.279Z,16.88
2019-05-30T11:43:41.221Z,16.88
2019-05-30T11:44:41.249Z,16.88
2019-05-30T11:45:41.244Z,16.88
2019-05-30T11:46:41.252Z,16.88
2019-05-30T11:47:41.268Z,16.88
2019-05-30T11:48:41.293Z,16.88
2019-05-30T11:49:41.300Z,16.88
2019-05-30T11:50:41.274Z,16.88
2019-05-30T11:51:41.272Z,16.88
2019-05-30T11:52:41.329Z,16.88
2019-05-30T11:53:41.245Z,16.88
2019-05-30T11:54:41.276Z,16.88
2019-05-30T11:55:41.253Z,16.88
2019-05-30T11:56:41.307Z,16.88
2019-05-30T11:57:41.263Z,16.88
2019-05-30T11:58:41.290Z,16.88
2019-05-30T11:59:41.284Z,16.88
2019-05-30T12:00:41.260Z,16.88
2019-05-30T12:01:41.289Z,16.88
2019-05-30T12:02:41.300Z,16.88
2019-05-30T12:03:41.282Z,16.88
2019-05-30T12:04:41.270Z,16.88
2019-05-30T12:05:41.279Z,16.88
2019-05-30T12:06:41.279Z,16.88
2019-05-30T12:07:41.345Z,16.88
2019-05-30T12:08:41.301Z,16.88
2019-05-30T12:09:41.282Z,16.88
2019-05-30T12:10:41.314Z,16.88
2019-05-30T12:11:41.291Z,16.88
2019-05-30T12:12:41.335Z,16.88
2019-05-30T12:13:41.297Z,16.88
2019-05-30T12:14:41.288Z,16.88
2019-05-30T12:15:41.301Z,16.88
2019-05-30T12:16:41.340Z,16.88
2019-05-30T12:17:41.302Z,16.88
2019-05-30T12:18:41.342Z,16.88
2019-05-30T12:19:41.357Z,16.88
2019-05-30T12:20:41.333Z,16.88
2019-05-30T12:21:41.330Z,16.88
2019-05-30T12:22:41.346Z,16.88
2019-05-30T12:23:41.384Z,16.88
2019-05-30T12:24:41.364Z,16.88
2019-05-30T12:25:41.350Z,16.88
2019-05-30T12:26:41.513Z,16.88
2019-05-30T12:27:41.378Z,22.50
2019-05-30T12:28:41.401Z,22.50
2019-05-30T12:29:41.424Z,22.50
2019-05-30T12:30:55.237Z,22.50
2019-05-30T12:31:41.436Z,22.50
2019-05-30T12:32:41.421Z,22.50
2019-05-30T12:33:41.419Z,22.50
2019-05-30T12:34:41.429Z,22.50
2019-05-30T12:35:41.367Z,22.50
2019-05-30T12:36:41.389Z,22.50
2019-05-30T12:37:54.024Z,22.50
2019-05-30T12:38:41.403Z,22.50
2019-05-30T12:39:41.387Z,22.50
2019-05-30T12:40:41.448Z,22.50
2019-05-30T12:41:41.410Z,22.50
2019-05-30T12:42:41.407Z,22.50
2019-05-30T12:43:41.431Z,22.50
2019-05-30T12:44:41.397Z,22.50
2019-05-30T12:45:41.449Z,22.50
2019-05-30T12:46:41.429Z,22.50
2019-05-30T12:47:41.428Z,22.50
2019-05-30T12:48:41.474Z,22.50
2019-05-30T12:49:41.396Z,22.50
2019-05-30T12:50:41.391Z,22.50
2019-05-30T12:51:41.438Z,22.50
2019-05-30T12:52:41.394Z,22.50
2019-05-30T12:53:41.395Z,28.13
2019-05-30T12:54:41.405Z,28.13
2019-05-30T12:55:41.443Z,28.13
2019-05-30T12:56:49.192Z,28.13
2019-05-30T12:58:46.171Z,28.13
2019-05-30T12:59:45.995Z,28.13
2019-05-30T13:00:46.058Z,28.13
2019-05-30T13:01:46.153Z,28.13
2019-05-30T13:02:45.966Z,28.13
2019-05-30T13:03:45.965Z,28.13
2019-05-30T13:04:45.980Z,28.13
2019-05-30T13:05:45.993Z,28.13
2019-05-30T13:06:55.978Z,28.13
2019-05-30T13:08:39.563Z,22.50
2019-05-30T13:09:39.451Z,22.50
2019-05-30T13:10:48.300Z,22.50
2019-05-30T13:12:44.936Z,22.50
2019-05-30T13:13:44.925Z,22.50
2019-05-30T13:14:44.918Z,22.50
2019-05-30T13:15:45.024Z,22.50
2019-05-30T13:16:44.925Z,28.13
2019-05-30T13:17:44.978Z,28.13
2019-05-30T13:18:44.923Z,28.13
2019-05-30T13:19:44.923Z,22.50
2019-05-30T13:20:53.758Z,28.13
2019-05-30T13:22:49.529Z,28.13
2019-05-30T13:23:49.453Z,22.50
2019-05-30T13:24:59.628Z,22.50
2019-05-30T13:27:14.050Z,28.13
2019-05-30T13:28:13.973Z,28.13
2019-05-30T13:30:10.712Z,28.13
2019-05-30T13:31:10.719Z,28.13
2019-05-30T13:32:10.699Z,28.13
2019-05-30T13:33:10.727Z,33.75
2019-05-30T13:34:10.707Z,33.75
2019-05-30T13:35:19.543Z,33.75
2019-05-30T13:38:54.635Z,33.75
2019-05-30T13:39:54.634Z,33.75
2019-05-30T13:41:03.606Z,33.75
2019-05-30T13:42:59.742Z,39.38
2019-05-30T13:44:03.288Z,39.38
2019-05-30T13:44:59.908Z,39.38
2019-05-30T13:46:00.191Z,39.38
2019-05-30T13:47:00.717Z,39.38
2019-05-30T13:48:00.270Z,39.38
2019-05-30T13:49:00.665Z,39.38
2019-05-30T13:49:59.168Z,39.38
2019-05-30T13:50:59.191Z,39.38
2019-05-30T13:51:59.162Z,39.38
2019-05-30T13:52:59.213Z,39.38
2019-05-30T13:53:59.168Z,39.38
2019-05-30T13:54:59.173Z,39.38
2019-05-30T13:55:59.327Z,39.38
2019-05-30T13:56:59.473Z,39.38
2019-05-30T13:57:59.495Z,39.38
2019-05-30T13:58:59.703Z,39.38
2019-05-30T13:59:59.627Z,39.38
2019-05-30T14:00:59.850Z,39.38
2019-05-30T14:01:59.834Z,39.38
2019-05-30T14:02:59.921Z,39.38
2019-05-30T14:04:00.014Z,39.38
2019-05-30T14:04:59.984Z,39.38
2019-05-30T14:05:59.929Z,39.38
2019-05-30T14:07:00.054Z,39.38
2019-05-30T14:07:59.948Z,39.38
2019-05-30T14:09:00.179Z,39.38
2019-05-30T14:10:00.264Z,39.38
2019-05-30T14:11:00.439Z,39.38
2019-05-30T14:12:00.368Z,39.38
2019-05-30T14:13:00.653Z,39.38
2019-05-30T14:14:00.472Z,39.38
2019-05-30T14:15:00.627Z,39.38
2019-05-30T14:15:59.270Z,39.38
2019-05-30T14:16:59.287Z,39.38
2019-05-30T14:17:59.294Z,39.38
2019-05-30T14:18:59.303Z,39.38
2019-05-30T14:19:59.366Z,39.38
2019-05-30T14:20:59.368Z,39.38
2019-05-30T14:21:59.309Z,39.38
2019-05-30T14:22:59.318Z,39.38
2019-05-30T14:23:59.295Z,39.38
2019-05-30T14:24:59.328Z,39.38
2019-05-30T14:25:59.333Z,39.38
2019-05-30T14:26:59.354Z,39.38
2019-05-30T14:27:59.316Z,39.38
2019-05-30T14:28:59.357Z,39.38
2019-05-30T14:29:59.324Z,39.38
2019-05-30T14:30:59.360Z,39.38
2019-05-30T14:31:59.551Z,39.38
2019-05-30T14:32:59.361Z,39.38
2019-05-30T14:33:59.364Z,39.38
2019-05-30T14:34:59.375Z,33.75
2019-05-30T14:35:59.379Z,33.75
2019-05-30T14:36:59.452Z,33.75
2019-05-30T14:37:59.391Z,33.75
2019-05-30T14:38:59.380Z,33.75
2019-05-30T14:39:59.372Z,33.75
2019-05-30T14:40:59.429Z,33.75
2019-05-30T14:41:59.418Z,33.75
2019-05-30T14:42:59.468Z,33.75
2019-05-30T14:43:59.398Z,39.38
2019-05-30T14:44:59.408Z,33.75
2019-05-30T14:45:59.441Z,39.38
2019-05-30T14:46:59.439Z,33.75
2019-05-30T14:47:59.414Z,33.75
2019-05-30T14:48:59.465Z,33.75
2019-05-30T14:49:59.431Z,33.75
2019-05-30T14:50:59.444Z,33.75
2019-05-30T14:51:59.457Z,33.75
2019-05-30T14:52:59.441Z,33.75
2019-05-30T14:53:59.446Z,33.75
2019-05-30T14:54:59.459Z,33.75
2019-05-30T14:55:59.515Z,33.75
2019-05-30T14:56:59.461Z,33.75
2019-05-30T14:57:59.532Z,33.75
2019-05-30T14:58:59.474Z,33.75
2019-05-30T14:59:59.514Z,28.13
2019-05-30T15:00:59.579Z,28.13
2019-05-30T15:01:59.588Z,33.75
2019-05-30T15:02:59.500Z,33.75
2019-05-30T15:03:59.517Z,33.75
2019-05-30T15:04:59.504Z,28.13
2019-05-30T15:05:59.504Z,28.13
2019-05-30T15:06:59.521Z,28.13
2019-05-30T15:07:59.558Z,28.13
2019-05-30T15:09:14.417Z,28.13
2019-05-30T15:09:59.549Z,28.13
2019-05-30T15:10:59.565Z,22.50
2019-05-30T15:11:59.583Z,22.50
2019-05-30T15:12:59.603Z,22.50
2019-05-30T15:13:59.521Z,22.50
2019-05-30T15:14:59.587Z,22.50
2019-05-30T15:15:59.560Z,22.50
2019-05-30T15:16:59.626Z,22.50
2019-05-30T15:17:59.654Z,22.50
2019-05-30T15:18:59.548Z,22.50
2019-05-30T15:19:59.558Z,22.50
2019-05-30T15:20:59.543Z,22.50
2019-05-30T15:21:59.558Z,22.50
2019-05-30T15:22:59.651Z,22.50
2019-05-30T15:23:59.710Z,22.50
2019-05-30T15:24:59.573Z,22.50
2019-05-30T15:25:59.657Z,22.50
2019-05-30T15:26:59.630Z,22.50
2019-05-30T15:27:59.685Z,22.50
2019-05-30T15:28:59.667Z,22.50
2019-05-30T15:29:59.673Z,22.50
2019-05-30T15:30:59.639Z,22.50
2019-05-30T15:31:59.589Z,22.50
2019-05-30T15:32:59.614Z,22.50
2019-05-30T15:33:59.705Z,22.50
2019-05-30T15:34:59.651Z,22.50
2019-05-30T15:35:59.630Z,22.50
2019-05-30T15:36:59.632Z,22.50
2019-05-30T15:37:59.610Z,22.50
2019-05-30T15:39:09.343Z,22.50
2019-05-30T15:41:05.287Z,22.50
2019-05-30T15:42:05.391Z,22.50
2019-05-30T15:43:05.438Z,22.50
2019-05-30T15:44:05.246Z,22.50
2019-05-30T15:45:05.213Z,22.50
2019-05-30T15:46:05.154Z,22.50
2019-05-30T15:47:05.241Z,22.50
2019-05-30T15:48:05.197Z,22.50
2019-05-30T15:49:05.211Z,22.50
2019-05-30T15:50:05.220Z,22.50
2019-05-30T15:51:05.183Z,22.50
2019-05-30T15:52:05.182Z,22.50
2019-05-30T15:53:05.265Z,22.50
2019-05-30T15:54:05.185Z,22.50
2019-05-30T15:55:05.280Z,22.50
2019-05-30T15:56:15.197Z,22.50
2019-05-30T15:57:58.822Z,22.50
2019-05-30T15:58:58.747Z,22.50
2019-05-30T15:59:58.803Z,22.50
2019-05-30T16:00:58.771Z,16.88
2019-05-30T16:01:58.734Z,16.88
2019-05-30T16:02:58.837Z,16.88
2019-05-30T16:06:29.579Z,16.88
2019-05-30T16:07:29.603Z,22.50
2019-05-30T16:08:29.507Z,22.50
2019-05-30T16:09:29.504Z,16.88
2019-05-30T16:10:29.465Z,16.88
2019-05-30T16:11:29.494Z,22.50
2019-05-30T16:12:29.585Z,22.50
2019-05-30T16:13:29.525Z,22.50
2019-05-30T16:14:29.489Z,22.50
2019-05-30T16:15:29.478Z,22.50
2019-05-30T16:16:39.320Z,22.50
2019-05-30T16:17:29.497Z,22.50
2019-05-30T16:18:29.515Z,22.50
2019-05-30T16:19:29.517Z,22.50
2019-05-30T16:20:29.598Z,22.50
2019-05-30T16:21:29.520Z,22.50
2019-05-30T16:22:29.522Z,22.50
2019-05-30T16:23:29.517Z,22.50
2019-05-30T16:24:29.607Z,22.50
2019-05-30T16:25:29.556Z,22.50
2019-05-30T16:26:29.621Z,22.50
2019-05-30T16:27:31.189Z,22.50
2019-05-30T16:28:29.565Z,22.50
2019-05-30T16:29:29.587Z,22.50
2019-05-30T16:30:29.598Z,22.50
2019-05-30T16:31:29.553Z,22.50
2019-05-30T16:32:29.607Z,22.50
2019-05-30T16:33:29.625Z,22.50
2019-05-30T16:34:32.653Z,22.50
2019-05-30T16:35:29.620Z,22.50
2019-05-30T16:36:29.655Z,22.50
2019-05-30T16:37:29.606Z,22.50
2019-05-30T16:38:29.633Z,22.50
2019-05-30T16:39:29.612Z,22.50
2019-05-30T16:40:29.573Z,22.50
2019-05-30T16:41:29.629Z,22.50
2019-05-30T16:42:29.618Z,22.50
2019-05-30T16:43:29.727Z,22.50
2019-05-30T16:44:29.590Z,16.88
2019-05-30T16:45:29.675Z,16.88
2019-05-30T16:46:29.669Z,16.88
2019-05-30T16:47:29.701Z,16.88
2019-05-30T16:48:29.652Z,16.88
2019-05-30T16:49:29.625Z,16.88
2019-05-30T16:50:29.671Z,16.88
2019-05-30T16:51:29.642Z,16.88
2019-05-30T16:52:29.710Z,16.88
2019-05-30T16:53:29.666Z,16.88
2019-05-30T16:54:29.635Z,16.88
2019-05-30T16:55:29.670Z,16.88
2019-05-30T16:56:29.639Z,16.88
2019-05-30T16:57:29.718Z,16.88
2019-05-30T16:58:29.678Z,16.88
2019-05-30T16:59:29.694Z,16.88
2019-05-30T17:00:29.732Z,16.88
2019-05-30T17:01:29.785Z,11.25
2019-05-30T17:02:29.672Z,11.25
2019-05-30T17:03:29.685Z,11.25
2019-05-30T17:04:29.690Z,11.25
2019-05-30T17:05:29.734Z,11.25
2019-05-30T17:06:29.707Z,11.25
2019-05-30T17:07:29.737Z,16.88
2019-05-30T17:08:29.719Z,16.88
2019-05-30T17:09:29.799Z,16.88
2019-05-30T17:10:32.822Z,16.88
2019-05-30T17:11:29.769Z,16.88
2019-05-30T17:12:29.778Z,16.88
2019-05-30T17:13:31.324Z,11.25
2019-05-30T17:14:29.811Z,11.25
2019-05-30T17:15:29.812Z,11.25
2019-05-30T17:16:29.789Z,11.25
2019-05-30T17:17:29.827Z,11.25
2019-05-30T17:18:29.746Z,11.25
2019-05-30T17:19:29.751Z,11.25
2019-05-30T17:20:29.805Z,11.25
2019-05-30T17:21:29.749Z,11.25
2019-05-30T17:22:30.721Z,11.25
2019-05-30T17:23:29.762Z,11.25
2019-05-30T17:24:29.824Z,16.88
2019-05-30T17:25:29.875Z,16.88
2019-05-30T17:26:29.756Z,16.88
2019-05-30T17:27:29.782Z,16.88
2019-05-30T17:28:29.858Z,16.88
2019-05-30T17:29:29.803Z,11.25
2019-05-30T17:30:29.846Z,11.25
2019-05-30T17:31:29.784Z,11.25
2019-05-30T17:32:29.836Z,16.88
2019-05-30T17:33:29.875Z,11.25
2019-05-30T17:34:29.834Z,11.25
2019-05-30T17:35:29.852Z,11.25
2019-05-30T17:36:29.878Z,11.25
2019-05-30T17:37:29.828Z,11.25
2019-05-30T17:38:29.820Z,11.25
2019-05-30T17:39:29.872Z,11.25